sensor_id;sensor_type;location;lat;lon;timestamp;P1;durP1;ratioP1;P2;durP2;ratioP2
15929;SDS011;8064;51.142;4.780;2023-04-25T00:01:15;13.33;;;5.37;;
15929;SDS011;8064;51.142;4.780;2023-04-25T00:03:40;10.53;;;4.87;;
15929;SDS011;8064;51.142;4.780;2023-04-25T00:06:06;13.63;;;5.57;;
15929;SDS011;8064;51.142;4.780;2023-04-25T00:08:32;10.30;;;4.93;;
15929;SDS011;8064;51.142;4.780;2023-04-25T00:10:58;11.77;;;5.97;;
15929;SDS011;8064;51.142;4.780;2023-04-25T00:13:25;10.37;;;4.97;;
15929;SDS011;8064;51.142;4.780;2023-04-25T00:15:51;14.67;;;5.47;;
15929;SDS011;8064;51.142;4.780;2023-04-25T00:18:18;10.63;;;5.17;;
15929;SDS011;8064;51.142;4.780;2023-04-25T00:20:45;12.90;;;5.40;;
15929;SDS011;8064;51.142;4.780;2023-04-25T00:23:13;10.17;;;5.40;;
15929;SDS011;8064;51.142;4.780;2023-04-25T00:25:51;13.23;;;5.23;;
15929;SDS011;8064;51.142;4.780;2023-04-25T00:28:17;11.60;;;5.40;;
15929;SDS011;8064;51.142;4.780;2023-04-25T00:30:43;11.17;;;5.33;;
15929;SDS011;8064;51.142;4.780;2023-04-25T00:33:09;9.93;;;4.60;;
15929;SDS011;8064;51.142;4.780;2023-04-25T00:35:35;11.13;;;5.10;;
15929;SDS011;8064;51.142;4.780;2023-04-25T00:38:01;10.60;;;4.57;;
15929;SDS011;8064;51.142;4.780;2023-04-25T00:40:27;9.67;;;4.80;;
15929;SDS011;8064;51.142;4.780;2023-04-25T00:42:53;9.93;;;4.23;;
15929;SDS011;8064;51.142;4.780;2023-04-25T00:45:19;10.47;;;4.13;;
15929;SDS011;8064;51.142;4.780;2023-04-25T00:47:45;9.93;;;5.40;;
15929;SDS011;8064;51.142;4.780;2023-04-25T00:50:12;11.63;;;4.40;;
15929;SDS011;8064;51.142;4.780;2023-04-25T00:52:39;7.57;;;4.63;;
15929;SDS011;8064;51.142;4.780;2023-04-25T00:55:06;11.33;;;4.53;;
15929;SDS011;8064;51.142;4.780;2023-04-25T00:57:33;7.37;;;4.10;;
15929;SDS011;8064;51.142;4.780;2023-04-25T00:59:59;10.77;;;4.63;;
15929;SDS011;8064;51.142;4.780;2023-04-25T01:02:25;9.97;;;4.70;;
15929;SDS011;8064;51.142;4.780;2023-04-25T01:04:52;11.27;;;4.33;;
15929;SDS011;8064;51.142;4.780;2023-04-25T01:07:18;11.60;;;5.13;;
15929;SDS011;8064;51.142;4.780;2023-04-25T01:09:45;9.93;;;4.70;;
15929;SDS011;8064;51.142;4.780;2023-04-25T01:12:11;12.43;;;4.60;;
15929;SDS011;8064;51.142;4.780;2023-04-25T01:14:39;13.00;;;5.17;;
15929;SDS011;8064;51.142;4.780;2023-04-25T01:17:05;10.87;;;5.47;;
15929;SDS011;8064;51.142;4.780;2023-04-25T01:19:32;8.13;;;4.57;;
15929;SDS011;8064;51.142;4.780;2023-04-25T01:21:58;16.53;;;5.63;;
15929;SDS011;8064;51.142;4.780;2023-04-25T01:24:25;10.67;;;5.00;;
15929;SDS011;8064;51.142;4.780;2023-04-25T01:26:51;10.50;;;4.70;;
15929;SDS011;8064;51.142;4.780;2023-04-25T01:29:18;11.80;;;4.93;;
15929;SDS011;8064;51.142;4.780;2023-04-25T01:31:45;18.97;;;4.50;;
15929;SDS011;8064;51.142;4.780;2023-04-25T01:34:12;14.70;;;5.03;;
15929;SDS011;8064;51.142;4.780;2023-04-25T01:36:38;10.27;;;4.90;;
15929;SDS011;8064;51.142;4.780;2023-04-25T01:39:04;14.80;;;5.10;;
15929;SDS011;8064;51.142;4.780;2023-04-25T01:41:30;14.07;;;5.20;;
15929;SDS011;8064;51.142;4.780;2023-04-25T01:43:56;11.37;;;4.80;;
15929;SDS011;8064;51.142;4.780;2023-04-25T01:46:22;9.47;;;4.70;;
15929;SDS011;8064;51.142;4.780;2023-04-25T01:48:48;9.67;;;5.33;;
15929;SDS011;8064;51.142;4.780;2023-04-25T01:51:14;11.63;;;4.93;;
15929;SDS011;8064;51.142;4.780;2023-04-25T01:53:40;11.07;;;4.70;;
15929;SDS011;8064;51.142;4.780;2023-04-25T01:56:07;13.23;;;5.00;;
15929;SDS011;8064;51.142;4.780;2023-04-25T01:58:33;9.50;;;4.43;;
15929;SDS011;8064;51.142;4.780;2023-04-25T02:00:59;8.80;;;5.07;;
15929;SDS011;8064;51.142;4.780;2023-04-25T02:03:25;13.67;;;4.77;;
15929;SDS011;8064;51.142;4.780;2023-04-25T02:05:51;11.83;;;4.97;;
15929;SDS011;8064;51.142;4.780;2023-04-25T02:08:17;9.23;;;4.83;;
15929;SDS011;8064;51.142;4.780;2023-04-25T02:10:43;10.93;;;5.00;;
15929;SDS011;8064;51.142;4.780;2023-04-25T02:13:09;12.00;;;5.40;;
15929;SDS011;8064;51.142;4.780;2023-04-25T02:15:35;12.97;;;5.03;;
15929;SDS011;8064;51.142;4.780;2023-04-25T02:18:00;10.13;;;4.63;;
15929;SDS011;8064;51.142;4.780;2023-04-25T02:20:29;16.13;;;5.10;;
15929;SDS011;8064;51.142;4.780;2023-04-25T02:22:55;12.10;;;5.13;;
15929;SDS011;8064;51.142;4.780;2023-04-25T02:25:21;9.60;;;4.70;;
15929;SDS011;8064;51.142;4.780;2023-04-25T02:27:47;10.57;;;4.60;;
15929;SDS011;8064;51.142;4.780;2023-04-25T02:30:13;11.27;;;5.07;;
15929;SDS011;8064;51.142;4.780;2023-04-25T02:32:40;12.80;;;5.30;;
15929;SDS011;8064;51.142;4.780;2023-04-25T02:35:06;12.47;;;4.97;;
15929;SDS011;8064;51.142;4.780;2023-04-25T02:37:33;9.13;;;4.47;;
15929;SDS011;8064;51.142;4.780;2023-04-25T02:40:00;12.00;;;4.87;;
15929;SDS011;8064;51.142;4.780;2023-04-25T02:42:26;8.30;;;4.50;;
15929;SDS011;8064;51.142;4.780;2023-04-25T02:44:52;11.97;;;4.90;;
15929;SDS011;8064;51.142;4.780;2023-04-25T02:47:18;14.57;;;5.03;;
15929;SDS011;8064;51.142;4.780;2023-04-25T02:49:44;11.97;;;4.50;;
15929;SDS011;8064;51.142;4.780;2023-04-25T02:52:10;13.60;;;5.53;;
15929;SDS011;8064;51.142;4.780;2023-04-25T02:54:36;9.57;;;4.60;;
15929;SDS011;8064;51.142;4.780;2023-04-25T02:57:02;14.30;;;4.90;;
15929;SDS011;8064;51.142;4.780;2023-04-25T02:59:28;12.37;;;5.67;;
15929;SDS011;8064;51.142;4.780;2023-04-25T03:01:54;13.27;;;5.37;;
15929;SDS011;8064;51.142;4.780;2023-04-25T03:04:20;13.27;;;4.77;;
15929;SDS011;8064;51.142;4.780;2023-04-25T03:06:48;10.90;;;4.80;;
15929;SDS011;8064;51.142;4.780;2023-04-25T03:09:15;16.63;;;5.13;;
15929;SDS011;8064;51.142;4.780;2023-04-25T03:11:40;11.80;;;5.83;;
15929;SDS011;8064;51.142;4.780;2023-04-25T03:14:06;12.40;;;5.60;;
15929;SDS011;8064;51.142;4.780;2023-04-25T03:16:32;15.83;;;5.33;;
15929;SDS011;8064;51.142;4.780;2023-04-25T03:18:58;14.13;;;5.47;;
15929;SDS011;8064;51.142;4.780;2023-04-25T03:21:24;12.10;;;5.97;;
15929;SDS011;8064;51.142;4.780;2023-04-25T03:23:51;13.27;;;5.60;;
15929;SDS011;8064;51.142;4.780;2023-04-25T03:26:17;9.70;;;5.50;;
15929;SDS011;8064;51.142;4.780;2023-04-25T03:28:43;11.50;;;4.67;;
15929;SDS011;8064;51.142;4.780;2023-04-25T03:31:08;15.00;;;4.87;;
15929;SDS011;8064;51.142;4.780;2023-04-25T03:33:34;10.63;;;5.30;;
15929;SDS011;8064;51.142;4.780;2023-04-25T03:36:00;12.50;;;5.10;;
15929;SDS011;8064;51.142;4.780;2023-04-25T03:38:26;10.93;;;5.23;;
15929;SDS011;8064;51.142;4.780;2023-04-25T03:40:52;14.67;;;5.50;;
15929;SDS011;8064;51.142;4.780;2023-04-25T03:43:18;11.83;;;5.50;;
15929;SDS011;8064;51.142;4.780;2023-04-25T03:45:43;9.50;;;4.90;;
15929;SDS011;8064;51.142;4.780;2023-04-25T03:48:09;12.60;;;4.87;;
15929;SDS011;8064;51.142;4.780;2023-04-25T03:50:35;11.23;;;5.07;;
15929;SDS011;8064;51.142;4.780;2023-04-25T03:53:01;16.63;;;5.47;;
15929;SDS011;8064;51.142;4.780;2023-04-25T03:55:26;10.83;;;5.07;;
15929;SDS011;8064;51.142;4.780;2023-04-25T03:57:52;11.37;;;4.77;;
15929;SDS011;8064;51.142;4.780;2023-04-25T04:00:18;12.57;;;4.97;;
15929;SDS011;8064;51.142;4.780;2023-04-25T04:02:44;9.07;;;5.03;;
15929;SDS011;8064;51.142;4.780;2023-04-25T04:05:09;10.30;;;5.10;;
15929;SDS011;8064;51.142;4.780;2023-04-25T04:07:35;13.70;;;4.80;;
15929;SDS011;8064;51.142;4.780;2023-04-25T04:10:06;15.67;;;5.60;;
15929;SDS011;8064;51.142;4.780;2023-04-25T04:12:32;17.43;;;5.60;;
15929;SDS011;8064;51.142;4.780;2023-04-25T04:14:58;12.00;;;4.73;;
15929;SDS011;8064;51.142;4.780;2023-04-25T04:17:24;13.03;;;5.20;;
15929;SDS011;8064;51.142;4.780;2023-04-25T04:19:50;11.23;;;4.87;;
15929;SDS011;8064;51.142;4.780;2023-04-25T04:22:16;11.27;;;4.73;;
15929;SDS011;8064;51.142;4.780;2023-04-25T04:24:42;11.50;;;5.60;;
15929;SDS011;8064;51.142;4.780;2023-04-25T04:27:09;16.03;;;4.83;;
15929;SDS011;8064;51.142;4.780;2023-04-25T04:29:35;11.40;;;5.13;;
15929;SDS011;8064;51.142;4.780;2023-04-25T04:32:02;13.63;;;5.33;;
15929;SDS011;8064;51.142;4.780;2023-04-25T04:34:28;12.37;;;5.47;;
15929;SDS011;8064;51.142;4.780;2023-04-25T04:36:54;16.13;;;5.20;;
15929;SDS011;8064;51.142;4.780;2023-04-25T04:39:20;17.03;;;5.37;;
15929;SDS011;8064;51.142;4.780;2023-04-25T04:41:46;15.13;;;4.67;;
15929;SDS011;8064;51.142;4.780;2023-04-25T04:44:12;15.90;;;5.27;;
15929;SDS011;8064;51.142;4.780;2023-04-25T04:46:39;12.17;;;4.83;;
15929;SDS011;8064;51.142;4.780;2023-04-25T04:49:05;13.43;;;5.50;;
15929;SDS011;8064;51.142;4.780;2023-04-25T04:51:31;9.03;;;4.73;;
15929;SDS011;8064;51.142;4.780;2023-04-25T04:53:58;12.70;;;5.13;;
15929;SDS011;8064;51.142;4.780;2023-04-25T04:56:27;17.77;;;6.10;;
15929;SDS011;8064;51.142;4.780;2023-04-25T04:58:54;15.67;;;5.90;;
15929;SDS011;8064;51.142;4.780;2023-04-25T05:01:20;15.90;;;5.53;;
15929;SDS011;8064;51.142;4.780;2023-04-25T05:03:47;16.60;;;5.90;;
15929;SDS011;8064;51.142;4.780;2023-04-25T05:06:12;15.80;;;5.87;;
15929;SDS011;8064;51.142;4.780;2023-04-25T05:08:38;12.27;;;6.13;;
15929;SDS011;8064;51.142;4.780;2023-04-25T05:11:04;15.70;;;6.23;;
15929;SDS011;8064;51.142;4.780;2023-04-25T05:13:30;17.10;;;6.00;;
15929;SDS011;8064;51.142;4.780;2023-04-25T05:15:56;12.50;;;5.63;;
15929;SDS011;8064;51.142;4.780;2023-04-25T05:18:22;12.00;;;5.20;;
15929;SDS011;8064;51.142;4.780;2023-04-25T05:20:47;11.60;;;5.60;;
15929;SDS011;8064;51.142;4.780;2023-04-25T05:23:13;15.67;;;5.13;;
15929;SDS011;8064;51.142;4.780;2023-04-25T05:25:39;11.83;;;5.20;;
15929;SDS011;8064;51.142;4.780;2023-04-25T05:28:05;14.90;;;6.80;;
15929;SDS011;8064;51.142;4.780;2023-04-25T05:30:31;13.90;;;5.57;;
15929;SDS011;8064;51.142;4.780;2023-04-25T05:32:56;15.83;;;6.03;;
15929;SDS011;8064;51.142;4.780;2023-04-25T05:35:22;11.83;;;5.23;;
15929;SDS011;8064;51.142;4.780;2023-04-25T05:37:48;13.57;;;5.57;;
15929;SDS011;8064;51.142;4.780;2023-04-25T05:40:14;13.07;;;5.27;;
15929;SDS011;8064;51.142;4.780;2023-04-25T05:42:39;12.27;;;5.53;;
15929;SDS011;8064;51.142;4.780;2023-04-25T05:45:05;19.97;;;6.10;;
15929;SDS011;8064;51.142;4.780;2023-04-25T05:47:31;13.60;;;5.40;;
15929;SDS011;8064;51.142;4.780;2023-04-25T05:49:57;12.20;;;5.13;;
15929;SDS011;8064;51.142;4.780;2023-04-25T05:52:23;15.33;;;5.90;;
15929;SDS011;8064;51.142;4.780;2023-04-25T05:54:49;13.37;;;5.40;;
15929;SDS011;8064;51.142;4.780;2023-04-25T05:57:22;12.13;;;5.77;;
15929;SDS011;8064;51.142;4.780;2023-04-25T05:59:49;17.27;;;6.07;;
15929;SDS011;8064;51.142;4.780;2023-04-25T06:02:15;13.10;;;5.27;;
15929;SDS011;8064;51.142;4.780;2023-04-25T06:04:41;12.10;;;5.20;;
15929;SDS011;8064;51.142;4.780;2023-04-25T06:07:06;15.03;;;6.07;;
15929;SDS011;8064;51.142;4.780;2023-04-25T06:09:32;11.03;;;5.40;;
15929;SDS011;8064;51.142;4.780;2023-04-25T06:11:58;14.00;;;5.30;;
15929;SDS011;8064;51.142;4.780;2023-04-25T06:14:24;11.93;;;5.40;;
15929;SDS011;8064;51.142;4.780;2023-04-25T06:16:50;13.03;;;5.33;;
15929;SDS011;8064;51.142;4.780;2023-04-25T06:19:16;14.77;;;5.20;;
15929;SDS011;8064;51.142;4.780;2023-04-25T06:21:43;15.67;;;5.57;;
15929;SDS011;8064;51.142;4.780;2023-04-25T06:24:09;8.77;;;4.53;;
15929;SDS011;8064;51.142;4.780;2023-04-25T06:26:35;16.17;;;5.07;;
15929;SDS011;8064;51.142;4.780;2023-04-25T06:29:01;14.70;;;4.97;;
15929;SDS011;8064;51.142;4.780;2023-04-25T06:31:27;10.60;;;4.57;;
15929;SDS011;8064;51.142;4.780;2023-04-25T06:33:54;11.87;;;4.53;;
15929;SDS011;8064;51.142;4.780;2023-04-25T06:36:20;8.43;;;4.20;;
15929;SDS011;8064;51.142;4.780;2023-04-25T06:38:50;10.73;;;4.87;;
15929;SDS011;8064;51.142;4.780;2023-04-25T06:41:17;11.70;;;4.60;;
15929;SDS011;8064;51.142;4.780;2023-04-25T06:43:43;10.70;;;5.00;;
15929;SDS011;8064;51.142;4.780;2023-04-25T06:46:09;10.17;;;4.63;;
15929;SDS011;8064;51.142;4.780;2023-04-25T06:48:35;12.17;;;4.63;;
15929;SDS011;8064;51.142;4.780;2023-04-25T06:51:01;10.23;;;4.73;;
15929;SDS011;8064;51.142;4.780;2023-04-25T06:53:27;10.13;;;4.70;;
15929;SDS011;8064;51.142;4.780;2023-04-25T06:55:53;12.20;;;4.83;;
15929;SDS011;8064;51.142;4.780;2023-04-25T06:58:19;15.00;;;5.60;;
15929;SDS011;8064;51.142;4.780;2023-04-25T07:00:45;10.90;;;4.60;;
15929;SDS011;8064;51.142;4.780;2023-04-25T07:03:11;10.07;;;5.10;;
15929;SDS011;8064;51.142;4.780;2023-04-25T07:05:37;16.67;;;5.50;;
15929;SDS011;8064;51.142;4.780;2023-04-25T07:08:03;11.17;;;5.40;;
15929;SDS011;8064;51.142;4.780;2023-04-25T07:10:29;11.60;;;5.20;;
15929;SDS011;8064;51.142;4.780;2023-04-25T07:12:54;6.37;;;4.67;;
15929;SDS011;8064;51.142;4.780;2023-04-25T07:15:20;9.50;;;5.07;;
15929;SDS011;8064;51.142;4.780;2023-04-25T07:17:46;17.00;;;6.43;;
15929;SDS011;8064;51.142;4.780;2023-04-25T07:20:12;9.73;;;5.43;;
15929;SDS011;8064;51.142;4.780;2023-04-25T07:22:37;11.27;;;6.13;;
15929;SDS011;8064;51.142;4.780;2023-04-25T07:25:03;11.20;;;6.30;;
15929;SDS011;8064;51.142;4.780;2023-04-25T07:27:30;14.50;;;6.77;;
15929;SDS011;8064;51.142;4.780;2023-04-25T07:29:56;8.80;;;6.43;;
15929;SDS011;8064;51.142;4.780;2023-04-25T07:32:22;11.13;;;6.07;;
15929;SDS011;8064;51.142;4.780;2023-04-25T07:34:48;9.73;;;6.60;;
15929;SDS011;8064;51.142;4.780;2023-04-25T07:37:14;8.37;;;6.30;;
15929;SDS011;8064;51.142;4.780;2023-04-25T07:39:40;13.27;;;6.23;;
15929;SDS011;8064;51.142;4.780;2023-04-25T07:42:06;9.37;;;6.53;;
15929;SDS011;8064;51.142;4.780;2023-04-25T07:44:34;9.83;;;6.43;;
15929;SDS011;8064;51.142;4.780;2023-04-25T07:47:04;8.17;;;6.60;;
15929;SDS011;8064;51.142;4.780;2023-04-25T07:49:32;9.10;;;6.30;;
15929;SDS011;8064;51.142;4.780;2023-04-25T07:51:59;6.97;;;5.37;;
15929;SDS011;8064;51.142;4.780;2023-04-25T07:54:25;6.93;;;5.87;;
15929;SDS011;8064;51.142;4.780;2023-04-25T07:56:51;9.37;;;5.97;;
15929;SDS011;8064;51.142;4.780;2023-04-25T07:59:17;9.90;;;6.43;;
15929;SDS011;8064;51.142;4.780;2023-04-25T08:01:43;7.13;;;6.07;;
15929;SDS011;8064;51.142;4.780;2023-04-25T08:04:08;8.87;;;6.77;;
15929;SDS011;8064;51.142;4.780;2023-04-25T08:06:34;9.83;;;7.00;;
15929;SDS011;8064;51.142;4.780;2023-04-25T08:09:01;8.97;;;6.80;;
15929;SDS011;8064;51.142;4.780;2023-04-25T08:11:28;8.03;;;7.17;;
15929;SDS011;8064;51.142;4.780;2023-04-25T08:13:53;10.93;;;6.67;;
15929;SDS011;8064;51.142;4.780;2023-04-25T08:16:19;6.83;;;5.87;;
15929;SDS011;8064;51.142;4.780;2023-04-25T08:18:45;8.80;;;6.60;;
15929;SDS011;8064;51.142;4.780;2023-04-25T08:21:11;9.23;;;6.90;;
15929;SDS011;8064;51.142;4.780;2023-04-25T08:23:37;6.67;;;6.07;;
15929;SDS011;8064;51.142;4.780;2023-04-25T08:26:03;10.47;;;5.67;;
15929;SDS011;8064;51.142;4.780;2023-04-25T08:28:30;7.17;;;6.13;;
15929;SDS011;8064;51.142;4.780;2023-04-25T08:30:56;9.37;;;6.03;;
15929;SDS011;8064;51.142;4.780;2023-04-25T08:33:22;8.93;;;6.57;;
15929;SDS011;8064;51.142;4.780;2023-04-25T08:35:48;8.27;;;6.57;;
15929;SDS011;8064;51.142;4.780;2023-04-25T08:38:13;10.13;;;6.67;;
15929;SDS011;8064;51.142;4.780;2023-04-25T08:40:39;11.63;;;7.10;;
15929;SDS011;8064;51.142;4.780;2023-04-25T08:43:06;10.17;;;6.87;;
15929;SDS011;8064;51.142;4.780;2023-04-25T08:45:42;8.37;;;6.57;;
15929;SDS011;8064;51.142;4.780;2023-04-25T08:48:10;11.13;;;7.07;;
15929;SDS011;8064;51.142;4.780;2023-04-25T08:50:39;8.10;;;6.77;;
15929;SDS011;8064;51.142;4.780;2023-04-25T08:53:22;8.37;;;7.47;;
15929;SDS011;8064;51.142;4.780;2023-04-25T08:56:08;8.73;;;7.70;;
15929;SDS011;8064;51.142;4.780;2023-04-25T08:58:35;8.30;;;7.50;;
15929;SDS011;8064;51.142;4.780;2023-04-25T09:01:01;8.87;;;6.80;;
15929;SDS011;8064;51.142;4.780;2023-04-25T09:03:29;8.07;;;7.27;;
15929;SDS011;8064;51.142;4.780;2023-04-25T09:05:55;7.70;;;7.00;;
15929;SDS011;8064;51.142;4.780;2023-04-25T09:08:20;7.73;;;7.00;;
15929;SDS011;8064;51.142;4.780;2023-04-25T09:10:46;7.57;;;6.43;;
15929;SDS011;8064;51.142;4.780;2023-04-25T09:13:13;8.00;;;6.57;;
15929;SDS011;8064;51.142;4.780;2023-04-25T09:18:26;6.40;;;5.67;;
15929;SDS011;8064;51.142;4.780;2023-04-25T09:20:53;6.50;;;5.90;;
15929;SDS011;8064;51.142;4.780;2023-04-25T09:23:21;6.07;;;5.43;;
15929;SDS011;8064;51.142;4.780;2023-04-25T09:25:49;7.00;;;6.23;;
15929;SDS011;8064;51.142;4.780;2023-04-25T09:28:22;5.17;;;4.87;;
15929;SDS011;8064;51.142;4.780;2023-04-25T09:30:54;6.43;;;5.37;;
15929;SDS011;8064;51.142;4.780;2023-04-25T09:33:23;5.77;;;5.13;;
15929;SDS011;8064;51.142;4.780;2023-04-25T09:35:56;5.57;;;5.00;;
15929;SDS011;8064;51.142;4.780;2023-04-25T09:38:29;5.17;;;4.73;;
15929;SDS011;8064;51.142;4.780;2023-04-25T09:40:57;6.73;;;5.20;;
15929;SDS011;8064;51.142;4.780;2023-04-25T09:43:23;5.60;;;5.10;;
15929;SDS011;8064;51.142;4.780;2023-04-25T09:45:51;6.40;;;5.90;;
15929;SDS011;8064;51.142;4.780;2023-04-25T09:48:19;6.40;;;5.77;;
15929;SDS011;8064;51.142;4.780;2023-04-25T09:53:34;7.10;;;6.47;;
15929;SDS011;8064;51.142;4.780;2023-04-25T09:56:03;7.50;;;6.90;;
15929;SDS011;8064;51.142;4.780;2023-04-25T09:58:31;6.77;;;5.93;;
15929;SDS011;8064;51.142;4.780;2023-04-25T10:00:59;8.87;;;6.93;;
15929;SDS011;8064;51.142;4.780;2023-04-25T10:03:29;6.97;;;6.37;;
15929;SDS011;8064;51.142;4.780;2023-04-25T10:05:57;8.90;;;7.67;;
15929;SDS011;8064;51.142;4.780;2023-04-25T10:08:25;8.23;;;7.10;;
15929;SDS011;8064;51.142;4.780;2023-04-25T10:10:56;8.33;;;6.53;;
15929;SDS011;8064;51.142;4.780;2023-04-25T10:13:24;7.50;;;6.90;;
15929;SDS011;8064;51.142;4.780;2023-04-25T10:15:51;6.90;;;6.20;;
15929;SDS011;8064;51.142;4.780;2023-04-25T10:18:18;6.90;;;6.27;;
15929;SDS011;8064;51.142;4.780;2023-04-25T10:20:45;7.13;;;6.13;;
15929;SDS011;8064;51.142;4.780;2023-04-25T10:23:13;9.07;;;5.60;;
15929;SDS011;8064;51.142;4.780;2023-04-25T10:25:40;6.37;;;5.63;;
15929;SDS011;8064;51.142;4.780;2023-04-25T10:28:06;7.80;;;6.30;;
15929;SDS011;8064;51.142;4.780;2023-04-25T10:30:32;6.23;;;5.73;;
15929;SDS011;8064;51.142;4.780;2023-04-25T10:32:58;7.63;;;5.80;;
15929;SDS011;8064;51.142;4.780;2023-04-25T10:35:25;6.97;;;6.27;;
15929;SDS011;8064;51.142;4.780;2023-04-25T10:40:35;9.77;;;6.10;;
15929;SDS011;8064;51.142;4.780;2023-04-25T10:45:59;6.50;;;5.93;;
15929;SDS011;8064;51.142;4.780;2023-04-25T10:48:26;7.80;;;6.23;;
15929;SDS011;8064;51.142;4.780;2023-04-25T10:53:41;6.43;;;5.80;;
15929;SDS011;8064;51.142;4.780;2023-04-25T11:01:39;6.70;;;6.00;;
15929;SDS011;8064;51.142;4.780;2023-04-25T11:09:48;6.53;;;5.93;;
15929;SDS011;8064;51.142;4.780;2023-04-25T11:12:14;7.17;;;6.33;;
15929;SDS011;8064;51.142;4.780;2023-04-25T11:14:42;7.53;;;5.80;;
15929;SDS011;8064;51.142;4.780;2023-04-25T11:17:07;10.93;;;6.20;;
15929;SDS011;8064;51.142;4.780;2023-04-25T11:19:34;6.10;;;5.60;;
15929;SDS011;8064;51.142;4.780;2023-04-25T11:22:00;5.97;;;5.57;;
15929;SDS011;8064;51.142;4.780;2023-04-25T11:24:29;8.03;;;5.90;;
15929;SDS011;8064;51.142;4.780;2023-04-25T11:26:57;6.27;;;5.77;;
15929;SDS011;8064;51.142;4.780;2023-04-25T11:29:26;7.13;;;6.47;;
15929;SDS011;8064;51.142;4.780;2023-04-25T11:31:52;7.43;;;6.57;;
15929;SDS011;8064;51.142;4.780;2023-04-25T11:34:21;7.37;;;6.30;;
15929;SDS011;8064;51.142;4.780;2023-04-25T11:36:47;8.43;;;6.23;;
15929;SDS011;8064;51.142;4.780;2023-04-25T11:39:13;6.67;;;6.20;;
15929;SDS011;8064;51.142;4.780;2023-04-25T11:41:41;6.53;;;5.77;;
15929;SDS011;8064;51.142;4.780;2023-04-25T11:44:07;6.20;;;5.80;;
15929;SDS011;8064;51.142;4.780;2023-04-25T11:46:33;7.77;;;6.00;;
15929;SDS011;8064;51.142;4.780;2023-04-25T11:49:00;6.23;;;5.63;;
15929;SDS011;8064;51.142;4.780;2023-04-25T11:51:25;8.17;;;5.70;;
15929;SDS011;8064;51.142;4.780;2023-04-25T11:53:52;6.07;;;5.47;;
15929;SDS011;8064;51.142;4.780;2023-04-25T11:56:18;7.10;;;6.27;;
15929;SDS011;8064;51.142;4.780;2023-04-25T11:58:55;7.30;;;6.10;;
15929;SDS011;8064;51.142;4.780;2023-04-25T12:06:51;7.20;;;6.20;;
15929;SDS011;8064;51.142;4.780;2023-04-25T12:09:19;6.00;;;5.60;;
15929;SDS011;8064;51.142;4.780;2023-04-25T12:11:48;5.83;;;5.40;;
15929;SDS011;8064;51.142;4.780;2023-04-25T12:14:24;6.73;;;5.90;;
15929;SDS011;8064;51.142;4.780;2023-04-25T12:16:52;5.73;;;5.23;;
15929;SDS011;8064;51.142;4.780;2023-04-25T12:19:21;5.70;;;5.23;;
15929;SDS011;8064;51.142;4.780;2023-04-25T12:21:47;6.73;;;4.83;;
15929;SDS011;8064;51.142;4.780;2023-04-25T12:24:15;5.90;;;5.40;;
15929;SDS011;8064;51.142;4.780;2023-04-25T12:29:29;6.33;;;5.70;;
15929;SDS011;8064;51.142;4.780;2023-04-25T12:31:56;5.60;;;5.20;;
15929;SDS011;8064;51.142;4.780;2023-04-25T12:34:23;8.10;;;5.90;;
15929;SDS011;8064;51.142;4.780;2023-04-25T12:36:50;6.00;;;5.37;;
15929;SDS011;8064;51.142;4.780;2023-04-25T12:39:18;6.17;;;5.67;;
15929;SDS011;8064;51.142;4.780;2023-04-25T12:41:49;5.47;;;5.07;;
15929;SDS011;8064;51.142;4.780;2023-04-25T12:44:15;5.37;;;4.97;;
15929;SDS011;8064;51.142;4.780;2023-04-25T12:46:42;6.67;;;5.20;;
15929;SDS011;8064;51.142;4.780;2023-04-25T12:49:08;5.40;;;4.90;;
15929;SDS011;8064;51.142;4.780;2023-04-25T12:51:35;5.07;;;4.67;;
15929;SDS011;8064;51.142;4.780;2023-04-25T12:54:02;6.37;;;4.93;;
15929;SDS011;8064;51.142;4.780;2023-04-25T12:56:29;5.43;;;4.97;;
15929;SDS011;8064;51.142;4.780;2023-04-25T12:58:56;5.70;;;5.20;;
15929;SDS011;8064;51.142;4.780;2023-04-25T13:01:22;5.70;;;4.93;;
15929;SDS011;8064;51.142;4.780;2023-04-25T13:03:49;6.03;;;5.47;;
15929;SDS011;8064;51.142;4.780;2023-04-25T13:06:15;5.50;;;5.10;;
15929;SDS011;8064;51.142;4.780;2023-04-25T13:08:42;5.93;;;5.00;;
15929;SDS011;8064;51.142;4.780;2023-04-25T13:11:08;6.53;;;6.03;;
15929;SDS011;8064;51.142;4.780;2023-04-25T13:13:34;5.83;;;5.33;;
15929;SDS011;8064;51.142;4.780;2023-04-25T13:16:00;6.33;;;5.77;;
15929;SDS011;8064;51.142;4.780;2023-04-25T13:18:28;6.63;;;5.30;;
15929;SDS011;8064;51.142;4.780;2023-04-25T13:20:55;5.50;;;5.10;;
15929;SDS011;8064;51.142;4.780;2023-04-25T13:23:21;4.97;;;4.67;;
15929;SDS011;8064;51.142;4.780;2023-04-25T13:25:48;6.60;;;5.60;;
15929;SDS011;8064;51.142;4.780;2023-04-25T13:28:14;11.07;;;7.13;;
15929;SDS011;8064;51.142;4.780;2023-04-25T13:30:40;7.03;;;5.73;;
15929;SDS011;8064;51.142;4.780;2023-04-25T13:33:06;6.20;;;5.50;;
15929;SDS011;8064;51.142;4.780;2023-04-25T13:35:33;7.50;;;5.70;;
15929;SDS011;8064;51.142;4.780;2023-04-25T13:38:00;5.83;;;5.10;;
15929;SDS011;8064;51.142;4.780;2023-04-25T13:40:26;6.43;;;5.83;;
15929;SDS011;8064;51.142;4.780;2023-04-25T13:42:52;6.30;;;5.60;;
15929;SDS011;8064;51.142;4.780;2023-04-25T13:45:18;7.00;;;5.73;;
15929;SDS011;8064;51.142;4.780;2023-04-25T13:47:44;6.83;;;5.17;;
15929;SDS011;8064;51.142;4.780;2023-04-25T13:50:10;5.40;;;4.90;;
15929;SDS011;8064;51.142;4.780;2023-04-25T13:52:37;5.33;;;4.83;;
15929;SDS011;8064;51.142;4.780;2023-04-25T13:55:03;5.30;;;4.90;;
15929;SDS011;8064;51.142;4.780;2023-04-25T13:57:31;5.73;;;5.30;;
15929;SDS011;8064;51.142;4.780;2023-04-25T13:59:58;5.50;;;5.10;;
15929;SDS011;8064;51.142;4.780;2023-04-25T14:02:24;5.33;;;4.80;;
15929;SDS011;8064;51.142;4.780;2023-04-25T14:04:51;5.60;;;4.67;;
15929;SDS011;8064;51.142;4.780;2023-04-25T14:07:16;8.03;;;5.80;;
15929;SDS011;8064;51.142;4.780;2023-04-25T14:09:45;5.77;;;5.37;;
15929;SDS011;8064;51.142;4.780;2023-04-25T14:12:11;7.77;;;5.90;;
15929;SDS011;8064;51.142;4.780;2023-04-25T14:14:37;6.13;;;5.17;;
15929;SDS011;8064;51.142;4.780;2023-04-25T14:17:03;6.17;;;5.63;;
15929;SDS011;8064;51.142;4.780;2023-04-25T14:19:29;6.17;;;5.67;;
15929;SDS011;8064;51.142;4.780;2023-04-25T14:21:55;5.30;;;4.90;;
15929;SDS011;8064;51.142;4.780;2023-04-25T14:24:21;8.93;;;5.73;;
15929;SDS011;8064;51.142;4.780;2023-04-25T14:26:47;5.90;;;5.40;;
15929;SDS011;8064;51.142;4.780;2023-04-25T14:29:13;6.13;;;5.60;;
15929;SDS011;8064;51.142;4.780;2023-04-25T14:31:39;5.57;;;5.07;;
15929;SDS011;8064;51.142;4.780;2023-04-25T14:34:05;5.40;;;4.93;;
15929;SDS011;8064;51.142;4.780;2023-04-25T14:36:32;5.30;;;4.90;;
15929;SDS011;8064;51.142;4.780;2023-04-25T14:38:58;5.93;;;5.37;;
15929;SDS011;8064;51.142;4.780;2023-04-25T14:41:24;5.83;;;5.33;;
15929;SDS011;8064;51.142;4.780;2023-04-25T14:43:51;6.40;;;5.70;;
15929;SDS011;8064;51.142;4.780;2023-04-25T14:46:19;5.97;;;5.43;;
15929;SDS011;8064;51.142;4.780;2023-04-25T14:48:45;6.27;;;5.67;;
15929;SDS011;8064;51.142;4.780;2023-04-25T14:51:12;5.70;;;5.20;;
15929;SDS011;8064;51.142;4.780;2023-04-25T14:53:38;6.23;;;5.63;;
15929;SDS011;8064;51.142;4.780;2023-04-25T14:56:04;6.77;;;5.47;;
15929;SDS011;8064;51.142;4.780;2023-04-25T14:58:30;4.93;;;4.40;;
15929;SDS011;8064;51.142;4.780;2023-04-25T15:00:56;5.63;;;5.10;;
15929;SDS011;8064;51.142;4.780;2023-04-25T15:03:22;7.30;;;5.40;;
15929;SDS011;8064;51.142;4.780;2023-04-25T15:05:48;6.20;;;5.67;;
15929;SDS011;8064;51.142;4.780;2023-04-25T15:08:14;5.80;;;5.27;;
15929;SDS011;8064;51.142;4.780;2023-04-25T15:10:39;6.60;;;5.20;;
15929;SDS011;8064;51.142;4.780;2023-04-25T15:13:05;5.83;;;5.23;;
15929;SDS011;8064;51.142;4.780;2023-04-25T15:15:31;6.17;;;5.60;;
15929;SDS011;8064;51.142;4.780;2023-04-25T15:17:57;5.60;;;5.10;;
15929;SDS011;8064;51.142;4.780;2023-04-25T15:20:22;5.27;;;4.97;;
15929;SDS011;8064;51.142;4.780;2023-04-25T15:22:48;5.53;;;4.97;;
15929;SDS011;8064;51.142;4.780;2023-04-25T15:25:15;6.07;;;5.07;;